createdAt,value
2018-11-05T00:00:35.404Z,100.00
2018-11-05T00:03:01.963Z,100.00
2018-11-05T00:05:28.514Z,100.00
2018-11-05T00:25:13.486Z,100.00
2018-11-05T00:27:39.889Z,100.00
2018-11-05T00:44:56.685Z,100.00
2018-11-05T00:47:24.279Z,100.00
2018-11-05T00:49:51.118Z,100.00
2018-11-05T00:52:18.129Z,100.00
2018-11-05T00:54:45.326Z,100.00
2018-11-05T00:57:11.917Z,100.00
2018-11-05T00:59:40.605Z,100.00
2018-11-05T01:02:06.997Z,100.00
2018-11-05T01:04:33.598Z,100.00
2018-11-05T01:20:08.406Z,100.00
2018-11-05T01:22:34.839Z,100.00
2018-11-05T01:37:27.134Z,100.00
2018-11-05T01:43:53.416Z,100.00
2018-11-05T01:46:20.140Z,100.00
2018-11-05T01:48:47.086Z,100.00
2018-11-05T01:51:13.586Z,100.00
2018-11-05T02:58:57.358Z,100.00
2018-11-05T03:01:23.763Z,100.00
2018-11-05T03:03:50.171Z,100.00
2018-11-05T03:06:16.985Z,100.00
2018-11-05T03:08:43.389Z,100.00
2018-11-05T03:11:09.797Z,100.00
2018-11-05T03:13:36.205Z,100.00
2018-11-05T03:16:02.917Z,100.00
2018-11-05T03:18:29.323Z,100.00
2018-11-05T03:20:56.562Z,100.00
2018-11-05T03:23:22.965Z,100.00
2018-11-05T03:25:49.890Z,100.00
2018-11-05T03:28:16.285Z,100.00
2018-11-05T03:30:42.667Z,100.00
2018-11-05T03:33:09.134Z,100.00
2018-11-05T03:35:36.023Z,100.00
2018-11-05T03:38:02.485Z,100.00
2018-11-05T03:40:28.873Z,100.00
2018-11-05T04:02:18.208Z,100.00
2018-11-05T04:25:54.701Z,100.00
2018-11-05T05:04:59.149Z,100.00
2018-11-05T05:07:26.195Z,100.00
2018-11-05T05:09:54.067Z,100.00
2018-11-05T05:12:20.470Z,100.00
2018-11-05T05:14:46.935Z,100.00
2018-11-05T05:17:13.848Z,100.00
2018-11-05T05:19:41.841Z,100.00
2018-11-05T05:22:08.478Z,100.00
2018-11-05T05:24:35.232Z,100.00
2018-11-05T05:27:02.002Z,100.00
2018-11-05T05:29:28.650Z,100.00
2018-11-05T05:31:55.154Z,100.00
2018-11-05T05:34:21.959Z,100.00
2018-11-05T05:36:48.639Z,100.00
2018-11-05T05:39:15.275Z,100.00
2018-11-05T05:41:43.702Z,100.00
2018-11-05T05:44:10.160Z,100.00
2018-11-05T05:46:36.565Z,100.00
2018-11-05T05:49:03.262Z,100.00
2018-11-05T05:51:29.661Z,100.00
2018-11-05T06:07:36.851Z,100.00
2018-11-05T06:10:05.121Z,100.00
2018-11-05T06:12:31.870Z,100.00
2018-11-05T06:14:58.394Z,100.00
2018-11-05T06:17:25.661Z,100.00
2018-11-05T06:19:52.681Z,100.00
2018-11-05T06:22:19.089Z,100.00
2018-11-05T06:24:45.625Z,100.00
2018-11-05T06:27:12.530Z,100.00
2018-11-05T06:29:39.036Z,100.00
2018-11-05T06:32:05.540Z,100.00
2018-11-05T06:34:32.322Z,100.00
2018-11-05T06:36:58.727Z,100.00
2018-11-05T06:39:25.169Z,100.00
2018-11-05T06:41:53.040Z,100.00
2018-11-05T06:44:19.401Z,100.00
2018-11-05T06:46:45.838Z,100.00
2018-11-05T06:49:12.553Z,100.00
2018-11-05T06:51:38.979Z,100.00
2018-11-05T06:54:05.396Z,100.00
2018-11-05T06:56:32.152Z,100.00
2018-11-05T06:58:58.749Z,100.00
2018-11-05T07:03:58.001Z,100.00
2018-11-05T07:06:24.597Z,100.00
2018-11-05T07:08:51.161Z,100.00
2018-11-05T07:11:18.007Z,100.00
2018-11-05T07:13:44.500Z,100.00
2018-11-05T07:16:11.948Z,100.00
2018-11-05T07:18:39.633Z,100.00
2018-11-05T07:21:05.886Z,100.00
2018-11-05T07:23:32.304Z,100.00
2018-11-05T07:25:59.057Z,100.00
2018-11-05T07:28:25.475Z,100.00
2018-11-05T07:30:51.902Z,100.00
2018-11-05T07:33:18.695Z,100.00
2018-11-05T07:35:45.270Z,100.00
2018-11-05T07:39:53.952Z,100.00
2018-11-05T07:42:20.442Z,100.00
2018-11-05T07:44:46.863Z,100.00
2018-11-05T07:47:13.903Z,100.00
2018-11-05T07:49:43.535Z,100.00
2018-11-05T07:52:09.941Z,100.00
2018-11-05T07:54:36.726Z,100.00
2018-11-05T08:38:47.690Z,98.55
2018-11-05T08:41:14.265Z,98.46
2018-11-05T08:43:41.202Z,97.87
2018-11-05T08:46:07.644Z,97.73
2018-11-05T08:48:34.287Z,96.61
2018-11-05T08:51:01.384Z,95.56
2018-11-05T08:53:27.734Z,95.83
2018-11-05T08:58:25.363Z,94.51
2018-11-05T09:00:51.777Z,95.16
2018-11-05T09:58:46.321Z,89.29
2018-11-05T10:32:29.644Z,84.16
2018-11-05T10:34:56.334Z,83.37
2018-11-05T10:37:22.750Z,83.52
2018-11-05T10:42:21.620Z,83.58
2018-11-05T10:44:51.632Z,83.78
2018-11-05T10:47:18.038Z,84.26
2018-11-05T10:49:45.618Z,83.68
2018-11-05T10:52:13.816Z,82.92
2018-11-05T10:54:40.623Z,82.99
2018-11-05T10:57:07.387Z,83.08
2018-11-05T10:59:33.839Z,83.75
2018-11-05T11:21:33.937Z,79.32
2018-11-05T11:24:00.349Z,79.75
2018-11-05T11:26:26.876Z,81.10
2018-11-05T11:28:54.153Z,79.69
2018-11-05T11:31:21.659Z,79.50
2018-11-05T11:33:48.121Z,79.90
2018-11-05T11:36:15.994Z,79.29
2018-11-05T11:38:42.431Z,79.76
2018-11-05T12:09:35.259Z,74.38
2018-11-05T12:12:02.345Z,73.79
2018-11-05T12:14:28.905Z,73.01
2018-11-05T12:18:51.593Z,72.66
2018-11-05T12:28:29.366Z,71.41
2018-11-05T12:30:55.771Z,71.96
2018-11-05T13:36:41.362Z,76.46
2018-11-05T14:26:59.751Z,81.12
2018-11-05T14:29:26.554Z,81.82
2018-11-05T14:31:52.952Z,81.74
2018-11-05T14:34:20.283Z,81.81
2018-11-05T14:57:28.725Z,77.70
2018-11-05T15:27:15.871Z,83.40
2018-11-05T15:29:42.308Z,84.94
2018-11-05T15:32:09.010Z,86.06
2018-11-05T15:34:36.585Z,86.97
2018-11-05T15:37:03.811Z,88.22
2018-11-05T15:39:30.725Z,88.88
2018-11-05T15:41:57.162Z,89.23
2018-11-05T15:44:25.176Z,89.45
2018-11-05T15:46:55.489Z,89.11
2018-11-05T15:49:21.894Z,88.98
2018-11-05T15:51:48.576Z,89.17
2018-11-05T15:54:16.021Z,89.26
2018-11-05T15:56:42.364Z,89.77
2018-11-05T15:59:09.433Z,90.13
2018-11-05T16:01:36.197Z,90.28
2018-11-05T16:04:03.465Z,90.31
2018-11-05T16:06:29.870Z,90.97
2018-11-05T16:08:56.578Z,91.11
2018-11-05T16:56:32.782Z,94.38
2018-11-05T18:03:44.105Z,92.90
2018-11-05T18:06:11.484Z,92.99
2018-11-05T18:08:39.010Z,93.60
2018-11-05T18:11:06.210Z,93.69
2018-11-05T18:13:33.591Z,93.74
2018-11-05T18:16:00.511Z,93.78
2018-11-05T18:18:27.625Z,93.43
2018-11-05T18:20:54.760Z,93.66
2018-11-05T18:23:22.675Z,93.32
2018-11-05T18:25:49.683Z,93.06
2018-11-05T18:28:16.104Z,93.38
2018-11-05T18:30:43.795Z,92.80
2018-11-05T18:59:53.912Z,95.72
2018-11-05T19:02:23.677Z,94.33
2018-11-05T19:04:50.482Z,93.96
2018-11-05T19:28:52.542Z,93.29
2018-11-05T19:31:20.848Z,92.54
2018-11-05T19:33:47.610Z,91.72
2018-11-05T19:36:14.537Z,91.91
2018-11-05T19:38:41.104Z,91.02
2018-11-05T19:43:41.224Z,90.75
2018-11-05T19:46:07.702Z,90.04
2018-11-05T19:48:35.501Z,90.39
2018-11-05T19:51:03.590Z,89.80
2018-11-05T20:04:59.070Z,87.85
2018-11-05T20:15:19.091Z,88.54
2018-11-05T20:17:47.461Z,89.13
2018-11-05T20:20:14.405Z,88.90
2018-11-05T20:22:40.873Z,89.25
2018-11-05T20:25:07.338Z,89.20
2018-11-05T20:27:34.386Z,88.81
2018-11-05T20:30:00.821Z,88.50
2018-11-05T20:32:27.713Z,88.62
2018-11-05T20:34:56.135Z,88.66
2018-11-05T20:37:24.634Z,88.79
2018-11-05T20:39:51.843Z,89.07
2018-11-05T20:42:18.635Z,89.07
2018-11-05T20:44:47.324Z,89.00
2018-11-05T20:47:13.838Z,88.11
2018-11-05T20:49:40.802Z,88.40
2018-11-05T20:52:08.190Z,87.85
2018-11-05T20:54:34.599Z,88.21
2018-11-05T21:06:44.438Z,87.71
2018-11-05T21:09:11.647Z,88.57
2018-11-05T21:13:45.336Z,88.63
2018-11-05T21:16:12.289Z,88.71
2018-11-05T21:18:40.215Z,88.53
2018-11-05T21:21:06.689Z,88.37
2018-11-05T21:23:33.114Z,88.05
2018-11-05T22:00:20.992Z,88.54
2018-11-05T22:04:41.390Z,87.81
2018-11-05T22:07:08.578Z,87.49
2018-11-05T22:09:35.234Z,87.28
2018-11-05T22:12:02.130Z,87.08
2018-11-05T22:14:28.553Z,86.63
2018-11-05T22:16:56.241Z,86.41
2018-11-05T22:19:23.070Z,86.65
2018-11-05T23:15:52.823Z,83.52
2018-11-05T23:18:19.319Z,82.75
2018-11-05T23:20:46.042Z,81.24
2018-11-05T23:23:12.830Z,80.96
2018-11-05T23:25:39.249Z,81.67
2018-11-05T23:28:06.486Z,81.93
2018-11-05T23:30:33.355Z,82.05
2018-11-05T23:32:59.785Z,82.21
2018-11-05T23:35:26.744Z,81.81
2018-11-05T23:37:53.678Z,82.00
2018-11-05T23:40:21.798Z,81.67
2018-11-05T23:42:48.426Z,81.55
2018-11-05T23:45:15.134Z,80.88
2018-11-05T23:47:41.540Z,80.06
2018-11-05T23:50:07.951Z,79.32
2018-11-05T23:52:34.354Z,78.33
2018-11-05T23:55:01.258Z,78.40
2018-11-05T23:57:27.667Z,79.09
2018-11-05T23:59:54.073Z,80.29
